Terminal Aerodrome Forecast
Issued by NWS

Home | Current Version | Previous Version | Text Only | Print | Product List | Glossary On
Versions: 1 2 3 4 5 6 7 8 9 10 11 12 13 14 15 16 17 18 19 20 21 22
314
FTUS43 KEAX 180522
TAFMKC
TAF
KMKC 180522Z 1806/1906 VRB03KT 2SM BR SKC
      TEMPO 1806/1808 1SM BR VV002
     FM180800 18004KT 4SM BR SCT150
     FM181600 18007KT P6SM FEW060 FEW150=

USA.gov is the U.S. government's official web portal to all federal, state and local government web resources and services.